sensor_id;sensor_type;location;lat;lon;timestamp;P1;durP1;ratioP1;P2;durP2;ratioP2
1308;SDS011;647;48.840;9.314;2022-08-19T00:01:16;62.63;;;6.00;;
1308;SDS011;647;48.840;9.314;2022-08-19T00:03:43;61.90;;;6.63;;
1308;SDS011;647;48.840;9.314;2022-08-19T00:06:10;62.83;;;6.60;;
1308;SDS011;647;48.840;9.314;2022-08-19T00:08:37;61.77;;;6.10;;
1308;SDS011;647;48.840;9.314;2022-08-19T00:11:05;62.20;;;7.03;;
1308;SDS011;647;48.840;9.314;2022-08-19T00:13:32;61.87;;;6.33;;
1308;SDS011;647;48.840;9.314;2022-08-19T00:16:00;64.47;;;8.13;;
1308;SDS011;647;48.840;9.314;2022-08-19T00:18:28;65.60;;;8.47;;
1308;SDS011;647;48.840;9.314;2022-08-19T00:20:55;64.30;;;7.23;;
1308;SDS011;647;48.840;9.314;2022-08-19T00:23:22;63.40;;;7.20;;
1308;SDS011;647;48.840;9.314;2022-08-19T00:25:50;63.70;;;7.30;;
1308;SDS011;647;48.840;9.314;2022-08-19T00:28:17;64.00;;;7.13;;
1308;SDS011;647;48.840;9.314;2022-08-19T00:30:45;64.80;;;6.97;;
1308;SDS011;647;48.840;9.314;2022-08-19T00:33:12;66.40;;;7.57;;
1308;SDS011;647;48.840;9.314;2022-08-19T00:35:42;63.73;;;7.17;;
1308;SDS011;647;48.840;9.314;2022-08-19T00:38:10;62.33;;;6.50;;
1308;SDS011;647;48.840;9.314;2022-08-19T00:40:37;62.53;;;7.43;;
1308;SDS011;647;48.840;9.314;2022-08-19T00:43:07;63.97;;;5.67;;
1308;SDS011;647;48.840;9.314;2022-08-19T00:45:34;65.63;;;7.93;;
1308;SDS011;647;48.840;9.314;2022-08-19T00:48:02;62.80;;;6.67;;
1308;SDS011;647;48.840;9.314;2022-08-19T00:50:29;64.17;;;7.63;;
1308;SDS011;647;48.840;9.314;2022-08-19T00:52:59;63.90;;;8.33;;
1308;SDS011;647;48.840;9.314;2022-08-19T00:55:29;62.90;;;7.20;;
1308;SDS011;647;48.840;9.314;2022-08-19T00:57:59;62.37;;;6.30;;
1308;SDS011;647;48.840;9.314;2022-08-19T01:00:27;63.27;;;6.60;;
1308;SDS011;647;48.840;9.314;2022-08-19T01:02:54;64.77;;;6.67;;
1308;SDS011;647;48.840;9.314;2022-08-19T01:05:22;64.90;;;7.73;;
1308;SDS011;647;48.840;9.314;2022-08-19T01:07:52;63.97;;;7.10;;
1308;SDS011;647;48.840;9.314;2022-08-19T01:10:22;63.17;;;6.87;;
1308;SDS011;647;48.840;9.314;2022-08-19T01:12:50;66.53;;;7.50;;
1308;SDS011;647;48.840;9.314;2022-08-19T01:15:18;63.07;;;6.87;;
1308;SDS011;647;48.840;9.314;2022-08-19T01:17:46;65.13;;;6.80;;
1308;SDS011;647;48.840;9.314;2022-08-19T01:20:14;71.00;;;6.63;;
1308;SDS011;647;48.840;9.314;2022-08-19T01:22:46;62.07;;;6.50;;
1308;SDS011;647;48.840;9.314;2022-08-19T01:25:14;63.37;;;7.53;;
1308;SDS011;647;48.840;9.314;2022-08-19T01:27:45;64.40;;;7.53;;
1308;SDS011;647;48.840;9.314;2022-08-19T01:30:13;65.77;;;7.00;;
1308;SDS011;647;48.840;9.314;2022-08-19T01:32:40;63.60;;;6.57;;
1308;SDS011;647;48.840;9.314;2022-08-19T01:35:09;64.27;;;7.03;;
1308;SDS011;647;48.840;9.314;2022-08-19T01:37:43;61.57;;;6.37;;
1308;SDS011;647;48.840;9.314;2022-08-19T01:40:12;64.77;;;7.43;;
1308;SDS011;647;48.840;9.314;2022-08-19T01:42:39;61.23;;;5.83;;
1308;SDS011;647;48.840;9.314;2022-08-19T01:45:07;66.50;;;6.80;;
1308;SDS011;647;48.840;9.314;2022-08-19T01:47:35;62.60;;;6.60;;
1308;SDS011;647;48.840;9.314;2022-08-19T01:50:03;64.20;;;6.83;;
1308;SDS011;647;48.840;9.314;2022-08-19T01:52:30;62.50;;;6.33;;
1308;SDS011;647;48.840;9.314;2022-08-19T01:54:57;64.77;;;6.57;;
1308;SDS011;647;48.840;9.314;2022-08-19T01:57:26;64.57;;;6.60;;
1308;SDS011;647;48.840;9.314;2022-08-19T01:59:53;65.07;;;7.00;;
1308;SDS011;647;48.840;9.314;2022-08-19T02:02:21;62.67;;;5.60;;
1308;SDS011;647;48.840;9.314;2022-08-19T02:04:48;63.83;;;7.23;;
1308;SDS011;647;48.840;9.314;2022-08-19T02:07:18;64.00;;;8.07;;
1308;SDS011;647;48.840;9.314;2022-08-19T02:09:45;67.07;;;6.97;;
1308;SDS011;647;48.840;9.314;2022-08-19T02:12:13;64.17;;;6.87;;
1308;SDS011;647;48.840;9.314;2022-08-19T02:14:42;64.20;;;6.80;;
1308;SDS011;647;48.840;9.314;2022-08-19T02:17:10;63.70;;;6.67;;
1308;SDS011;647;48.840;9.314;2022-08-19T02:19:37;65.17;;;7.23;;
1308;SDS011;647;48.840;9.314;2022-08-19T02:22:04;62.80;;;6.20;;
1308;SDS011;647;48.840;9.314;2022-08-19T02:24:31;66.70;;;7.17;;
1308;SDS011;647;48.840;9.314;2022-08-19T02:26:59;66.77;;;8.37;;
1308;SDS011;647;48.840;9.314;2022-08-19T02:29:26;67.30;;;7.40;;
1308;SDS011;647;48.840;9.314;2022-08-19T02:31:54;64.80;;;6.70;;
1308;SDS011;647;48.840;9.314;2022-08-19T02:34:21;63.47;;;7.03;;
1308;SDS011;647;48.840;9.314;2022-08-19T02:36:50;63.33;;;6.67;;
1308;SDS011;647;48.840;9.314;2022-08-19T02:39:17;62.43;;;6.43;;
1308;SDS011;647;48.840;9.314;2022-08-19T02:41:43;65.90;;;6.77;;
1308;SDS011;647;48.840;9.314;2022-08-19T02:44:10;62.67;;;6.93;;
1308;SDS011;647;48.840;9.314;2022-08-19T02:46:38;64.77;;;7.53;;
1308;SDS011;647;48.840;9.314;2022-08-19T02:49:06;65.53;;;7.20;;
1308;SDS011;647;48.840;9.314;2022-08-19T02:51:35;67.00;;;8.40;;
1308;SDS011;647;48.840;9.314;2022-08-19T02:54:04;63.53;;;8.60;;
1308;SDS011;647;48.840;9.314;2022-08-19T02:56:32;68.37;;;8.30;;
1308;SDS011;647;48.840;9.314;2022-08-19T02:59:00;65.17;;;7.53;;
1308;SDS011;647;48.840;9.314;2022-08-19T03:01:28;64.80;;;8.70;;
1308;SDS011;647;48.840;9.314;2022-08-19T03:03:56;64.37;;;8.23;;
1308;SDS011;647;48.840;9.314;2022-08-19T03:06:25;65.47;;;7.93;;
1308;SDS011;647;48.840;9.314;2022-08-19T03:08:53;64.10;;;7.50;;
1308;SDS011;647;48.840;9.314;2022-08-19T03:11:21;64.37;;;8.60;;
1308;SDS011;647;48.840;9.314;2022-08-19T03:13:48;65.37;;;7.60;;
1308;SDS011;647;48.840;9.314;2022-08-19T03:16:16;63.47;;;7.17;;
1308;SDS011;647;48.840;9.314;2022-08-19T03:18:43;64.60;;;8.77;;
1308;SDS011;647;48.840;9.314;2022-08-19T03:21:14;65.57;;;7.27;;
1308;SDS011;647;48.840;9.314;2022-08-19T03:23:43;62.93;;;7.30;;
1308;SDS011;647;48.840;9.314;2022-08-19T03:26:10;66.40;;;7.30;;
1308;SDS011;647;48.840;9.314;2022-08-19T03:28:40;62.27;;;6.43;;
1308;SDS011;647;48.840;9.314;2022-08-19T03:31:08;62.77;;;6.87;;
1308;SDS011;647;48.840;9.314;2022-08-19T03:33:36;66.33;;;8.20;;
1308;SDS011;647;48.840;9.314;2022-08-19T03:36:05;66.10;;;6.97;;
1308;SDS011;647;48.840;9.314;2022-08-19T03:38:33;65.77;;;8.40;;
1308;SDS011;647;48.840;9.314;2022-08-19T03:41:06;65.27;;;7.87;;
1308;SDS011;647;48.840;9.314;2022-08-19T03:43:34;66.33;;;8.97;;
1308;SDS011;647;48.840;9.314;2022-08-19T03:46:02;64.67;;;7.97;;
1308;SDS011;647;48.840;9.314;2022-08-19T03:48:29;65.50;;;8.00;;
1308;SDS011;647;48.840;9.314;2022-08-19T03:50:57;62.57;;;7.13;;
1308;SDS011;647;48.840;9.314;2022-08-19T03:53:25;66.23;;;7.73;;
1308;SDS011;647;48.840;9.314;2022-08-19T03:55:52;64.00;;;7.30;;
1308;SDS011;647;48.840;9.314;2022-08-19T03:58:21;64.73;;;8.17;;
1308;SDS011;647;48.840;9.314;2022-08-19T04:00:49;68.07;;;9.30;;
1308;SDS011;647;48.840;9.314;2022-08-19T04:03:16;64.53;;;7.93;;
1308;SDS011;647;48.840;9.314;2022-08-19T04:05:44;66.20;;;7.90;;
1308;SDS011;647;48.840;9.314;2022-08-19T04:08:12;72.57;;;8.57;;
1308;SDS011;647;48.840;9.314;2022-08-19T04:10:43;65.63;;;8.57;;
1308;SDS011;647;48.840;9.314;2022-08-19T04:13:11;65.93;;;8.70;;
1308;SDS011;647;48.840;9.314;2022-08-19T04:15:40;65.27;;;8.40;;
1308;SDS011;647;48.840;9.314;2022-08-19T04:18:08;65.40;;;7.60;;
1308;SDS011;647;48.840;9.314;2022-08-19T04:20:39;66.00;;;7.53;;
1308;SDS011;647;48.840;9.314;2022-08-19T04:23:06;66.90;;;8.13;;
1308;SDS011;647;48.840;9.314;2022-08-19T04:25:35;64.20;;;7.47;;
1308;SDS011;647;48.840;9.314;2022-08-19T04:28:02;70.27;;;8.50;;
1308;SDS011;647;48.840;9.314;2022-08-19T04:30:29;66.63;;;7.63;;
1308;SDS011;647;48.840;9.314;2022-08-19T04:32:58;64.90;;;8.33;;
1308;SDS011;647;48.840;9.314;2022-08-19T04:35:25;69.80;;;8.60;;
1308;SDS011;647;48.840;9.314;2022-08-19T04:37:52;66.30;;;9.00;;
1308;SDS011;647;48.840;9.314;2022-08-19T04:40:19;66.37;;;8.43;;
1308;SDS011;647;48.840;9.314;2022-08-19T04:43:04;66.50;;;7.80;;
1308;SDS011;647;48.840;9.314;2022-08-19T04:45:32;64.20;;;7.80;;
1308;SDS011;647;48.840;9.314;2022-08-19T04:48:00;69.13;;;9.40;;
1308;SDS011;647;48.840;9.314;2022-08-19T04:50:27;67.37;;;8.93;;
1308;SDS011;647;48.840;9.314;2022-08-19T04:52:54;65.50;;;8.23;;
1308;SDS011;647;48.840;9.314;2022-08-19T04:55:21;67.10;;;9.47;;
1308;SDS011;647;48.840;9.314;2022-08-19T04:57:50;70.47;;;9.33;;
1308;SDS011;647;48.840;9.314;2022-08-19T05:00:17;67.30;;;9.40;;
1308;SDS011;647;48.840;9.314;2022-08-19T05:02:44;66.60;;;8.50;;
1308;SDS011;647;48.840;9.314;2022-08-19T05:05:13;65.90;;;7.90;;
1308;SDS011;647;48.840;9.314;2022-08-19T05:07:40;68.57;;;10.87;;
1308;SDS011;647;48.840;9.314;2022-08-19T05:10:07;65.47;;;9.17;;
1308;SDS011;647;48.840;9.314;2022-08-19T05:12:34;71.40;;;10.10;;
1308;SDS011;647;48.840;9.314;2022-08-19T05:15:07;69.30;;;9.67;;
1308;SDS011;647;48.840;9.314;2022-08-19T05:17:34;67.93;;;9.67;;
1308;SDS011;647;48.840;9.314;2022-08-19T05:20:01;67.50;;;9.37;;
1308;SDS011;647;48.840;9.314;2022-08-19T05:22:48;66.50;;;9.60;;
1308;SDS011;647;48.840;9.314;2022-08-19T05:25:16;68.33;;;10.03;;
1308;SDS011;647;48.840;9.314;2022-08-19T05:27:44;64.90;;;8.10;;
1308;SDS011;647;48.840;9.314;2022-08-19T05:30:11;64.80;;;7.83;;
1308;SDS011;647;48.840;9.314;2022-08-19T05:32:39;64.37;;;8.77;;
1308;SDS011;647;48.840;9.314;2022-08-19T05:35:07;69.63;;;8.20;;
1308;SDS011;647;48.840;9.314;2022-08-19T05:37:34;67.13;;;8.87;;
1308;SDS011;647;48.840;9.314;2022-08-19T05:40:03;73.03;;;9.70;;
1308;SDS011;647;48.840;9.314;2022-08-19T05:42:30;65.97;;;9.10;;
1308;SDS011;647;48.840;9.314;2022-08-19T05:44:58;67.03;;;8.27;;
1308;SDS011;647;48.840;9.314;2022-08-19T05:47:25;67.43;;;9.03;;
1308;SDS011;647;48.840;9.314;2022-08-19T05:49:52;67.63;;;7.97;;
1308;SDS011;647;48.840;9.314;2022-08-19T05:52:19;67.13;;;9.57;;
1308;SDS011;647;48.840;9.314;2022-08-19T05:54:46;66.43;;;8.87;;
1308;SDS011;647;48.840;9.314;2022-08-19T05:57:17;67.20;;;9.57;;
1308;SDS011;647;48.840;9.314;2022-08-19T05:59:44;67.60;;;9.13;;
1308;SDS011;647;48.840;9.314;2022-08-19T06:02:16;65.50;;;7.63;;
1308;SDS011;647;48.840;9.314;2022-08-19T06:04:43;66.60;;;9.40;;
1308;SDS011;647;48.840;9.314;2022-08-19T06:07:10;68.50;;;8.70;;
1308;SDS011;647;48.840;9.314;2022-08-19T06:09:37;66.60;;;9.80;;
1308;SDS011;647;48.840;9.314;2022-08-19T06:12:05;67.90;;;9.67;;
1308;SDS011;647;48.840;9.314;2022-08-19T06:14:35;66.57;;;9.50;;
1308;SDS011;647;48.840;9.314;2022-08-19T06:17:02;65.00;;;8.03;;
1308;SDS011;647;48.840;9.314;2022-08-19T06:19:29;66.07;;;8.77;;
1308;SDS011;647;48.840;9.314;2022-08-19T06:21:57;63.97;;;8.10;;
1308;SDS011;647;48.840;9.314;2022-08-19T06:24:25;69.63;;;9.83;;
1308;SDS011;647;48.840;9.314;2022-08-19T06:26:53;70.10;;;9.10;;
1308;SDS011;647;48.840;9.314;2022-08-19T06:29:22;66.23;;;10.40;;
1308;SDS011;647;48.840;9.314;2022-08-19T06:31:52;70.10;;;10.30;;
1308;SDS011;647;48.840;9.314;2022-08-19T06:34:20;65.07;;;8.77;;
1308;SDS011;647;48.840;9.314;2022-08-19T06:36:47;65.50;;;9.30;;
1308;SDS011;647;48.840;9.314;2022-08-19T06:39:17;67.93;;;10.50;;
1308;SDS011;647;48.840;9.314;2022-08-19T06:41:46;65.77;;;9.40;;
1308;SDS011;647;48.840;9.314;2022-08-19T06:44:14;68.23;;;8.70;;
1308;SDS011;647;48.840;9.314;2022-08-19T06:46:42;64.20;;;9.03;;
1308;SDS011;647;48.840;9.314;2022-08-19T06:49:11;70.17;;;10.03;;
1308;SDS011;647;48.840;9.314;2022-08-19T06:51:39;68.63;;;8.80;;
1308;SDS011;647;48.840;9.314;2022-08-19T06:54:06;74.60;;;11.07;;
1308;SDS011;647;48.840;9.314;2022-08-19T06:56:33;66.60;;;8.90;;
1308;SDS011;647;48.840;9.314;2022-08-19T06:59:01;65.37;;;8.30;;
1308;SDS011;647;48.840;9.314;2022-08-19T07:01:28;65.77;;;9.10;;
1308;SDS011;647;48.840;9.314;2022-08-19T07:03:55;68.40;;;9.27;;
1308;SDS011;647;48.840;9.314;2022-08-19T07:06:24;66.57;;;10.67;;
1308;SDS011;647;48.840;9.314;2022-08-19T07:08:51;66.27;;;9.00;;
1308;SDS011;647;48.840;9.314;2022-08-19T07:11:18;66.20;;;8.53;;
1308;SDS011;647;48.840;9.314;2022-08-19T07:13:46;67.80;;;9.53;;
1308;SDS011;647;48.840;9.314;2022-08-19T07:16:15;67.70;;;10.23;;
1308;SDS011;647;48.840;9.314;2022-08-19T07:18:42;64.73;;;8.40;;
1308;SDS011;647;48.840;9.314;2022-08-19T07:21:10;66.47;;;8.77;;
1308;SDS011;647;48.840;9.314;2022-08-19T07:23:39;67.63;;;9.80;;
1308;SDS011;647;48.840;9.314;2022-08-19T07:26:07;65.70;;;8.70;;
1308;SDS011;647;48.840;9.314;2022-08-19T07:28:34;67.50;;;10.30;;
1308;SDS011;647;48.840;9.314;2022-08-19T07:31:04;68.60;;;8.53;;
1308;SDS011;647;48.840;9.314;2022-08-19T07:33:31;71.80;;;11.80;;
1308;SDS011;647;48.840;9.314;2022-08-19T07:36:01;73.23;;;11.50;;
1308;SDS011;647;48.840;9.314;2022-08-19T07:38:29;67.43;;;9.70;;
1308;SDS011;647;48.840;9.314;2022-08-19T07:40:58;67.07;;;8.53;;
1308;SDS011;647;48.840;9.314;2022-08-19T07:43:25;65.57;;;9.70;;
1308;SDS011;647;48.840;9.314;2022-08-19T07:45:53;66.87;;;9.83;;
1308;SDS011;647;48.840;9.314;2022-08-19T07:48:21;67.53;;;9.13;;
1308;SDS011;647;48.840;9.314;2022-08-19T07:50:50;65.67;;;8.60;;
1308;SDS011;647;48.840;9.314;2022-08-19T07:53:18;66.50;;;8.60;;
1308;SDS011;647;48.840;9.314;2022-08-19T07:55:45;67.10;;;10.47;;
1308;SDS011;647;48.840;9.314;2022-08-19T07:58:14;66.67;;;8.93;;
1308;SDS011;647;48.840;9.314;2022-08-19T08:00:42;65.00;;;8.43;;
1308;SDS011;647;48.840;9.314;2022-08-19T08:03:09;68.20;;;9.33;;
1308;SDS011;647;48.840;9.314;2022-08-19T08:05:36;69.03;;;8.37;;
1308;SDS011;647;48.840;9.314;2022-08-19T08:08:21;66.03;;;8.40;;
1308;SDS011;647;48.840;9.314;2022-08-19T08:11:05;65.87;;;8.80;;
1308;SDS011;647;48.840;9.314;2022-08-19T08:13:34;65.60;;;8.20;;
1308;SDS011;647;48.840;9.314;2022-08-19T08:16:01;64.20;;;7.50;;
1308;SDS011;647;48.840;9.314;2022-08-19T08:18:29;65.33;;;8.57;;
1308;SDS011;647;48.840;9.314;2022-08-19T08:20:56;67.10;;;10.73;;
1308;SDS011;647;48.840;9.314;2022-08-19T08:23:24;65.30;;;7.87;;
1308;SDS011;647;48.840;9.314;2022-08-19T08:25:52;65.37;;;7.23;;
1308;SDS011;647;48.840;9.314;2022-08-19T08:28:20;64.77;;;8.43;;
1308;SDS011;647;48.840;9.314;2022-08-19T08:30:49;65.40;;;8.00;;
1308;SDS011;647;48.840;9.314;2022-08-19T08:33:18;67.67;;;8.83;;
1308;SDS011;647;48.840;9.314;2022-08-19T08:35:46;65.70;;;8.10;;
1308;SDS011;647;48.840;9.314;2022-08-19T08:38:14;64.53;;;8.00;;
1308;SDS011;647;48.840;9.314;2022-08-19T08:40:44;64.50;;;7.83;;
1308;SDS011;647;48.840;9.314;2022-08-19T08:43:18;65.93;;;7.20;;
1308;SDS011;647;48.840;9.314;2022-08-19T08:45:51;66.70;;;9.13;;
1308;SDS011;647;48.840;9.314;2022-08-19T08:48:20;65.27;;;8.50;;
1308;SDS011;647;48.840;9.314;2022-08-19T08:50:47;66.10;;;8.60;;
1308;SDS011;647;48.840;9.314;2022-08-19T08:53:17;64.10;;;7.97;;
1308;SDS011;647;48.840;9.314;2022-08-19T08:55:46;66.83;;;9.30;;
1308;SDS011;647;48.840;9.314;2022-08-19T08:58:14;71.37;;;7.73;;
1308;SDS011;647;48.840;9.314;2022-08-19T09:00:45;66.60;;;8.97;;
1308;SDS011;647;48.840;9.314;2022-08-19T09:03:17;67.00;;;8.87;;
1308;SDS011;647;48.840;9.314;2022-08-19T09:05:46;64.10;;;7.30;;
1308;SDS011;647;48.840;9.314;2022-08-19T09:08:35;68.87;;;10.60;;
1308;SDS011;647;48.840;9.314;2022-08-19T09:11:05;68.00;;;9.80;;
1308;SDS011;647;48.840;9.314;2022-08-19T09:13:36;64.20;;;6.90;;
1308;SDS011;647;48.840;9.314;2022-08-19T09:16:07;65.87;;;8.47;;
1308;SDS011;647;48.840;9.314;2022-08-19T09:18:42;66.40;;;9.50;;
1308;SDS011;647;48.840;9.314;2022-08-19T09:21:11;67.00;;;8.70;;
1308;SDS011;647;48.840;9.314;2022-08-19T09:23:38;63.23;;;7.73;;
1308;SDS011;647;48.840;9.314;2022-08-19T09:26:06;64.80;;;8.00;;
1308;SDS011;647;48.840;9.314;2022-08-19T09:28:34;67.97;;;8.50;;
1308;SDS011;647;48.840;9.314;2022-08-19T09:31:02;66.87;;;10.00;;
1308;SDS011;647;48.840;9.314;2022-08-19T09:33:29;67.20;;;8.87;;
1308;SDS011;647;48.840;9.314;2022-08-19T09:36:06;64.80;;;8.93;;
1308;SDS011;647;48.840;9.314;2022-08-19T09:38:34;64.43;;;7.37;;
1308;SDS011;647;48.840;9.314;2022-08-19T09:41:02;63.73;;;8.40;;
1308;SDS011;647;48.840;9.314;2022-08-19T09:43:30;65.57;;;9.37;;
1308;SDS011;647;48.840;9.314;2022-08-19T09:45:58;64.40;;;8.57;;
1308;SDS011;647;48.840;9.314;2022-08-19T09:48:25;68.27;;;11.20;;
1308;SDS011;647;48.840;9.314;2022-08-19T09:50:52;67.50;;;9.07;;
1308;SDS011;647;48.840;9.314;2022-08-19T09:53:21;64.60;;;8.60;;
1308;SDS011;647;48.840;9.314;2022-08-19T09:55:48;65.57;;;9.43;;
1308;SDS011;647;48.840;9.314;2022-08-19T09:58:16;64.97;;;8.00;;
1308;SDS011;647;48.840;9.314;2022-08-19T10:00:43;66.00;;;9.03;;
1308;SDS011;647;48.840;9.314;2022-08-19T10:03:11;65.17;;;8.70;;
1308;SDS011;647;48.840;9.314;2022-08-19T10:05:38;66.20;;;9.50;;
1308;SDS011;647;48.840;9.314;2022-08-19T10:08:14;70.07;;;11.67;;
1308;SDS011;647;48.840;9.314;2022-08-19T10:10:43;65.67;;;9.30;;
1308;SDS011;647;48.840;9.314;2022-08-19T10:13:11;65.00;;;8.30;;
1308;SDS011;647;48.840;9.314;2022-08-19T10:15:38;72.17;;;9.53;;
1308;SDS011;647;48.840;9.314;2022-08-19T10:18:06;68.53;;;10.10;;
1308;SDS011;647;48.840;9.314;2022-08-19T10:20:33;67.27;;;9.97;;
1308;SDS011;647;48.840;9.314;2022-08-19T10:23:02;67.63;;;10.53;;
1308;SDS011;647;48.840;9.314;2022-08-19T10:25:29;67.77;;;10.00;;
1308;SDS011;647;48.840;9.314;2022-08-19T10:27:58;64.97;;;8.63;;
1308;SDS011;647;48.840;9.314;2022-08-19T10:30:25;69.83;;;9.47;;
1308;SDS011;647;48.840;9.314;2022-08-19T10:32:52;67.57;;;8.83;;
1308;SDS011;647;48.840;9.314;2022-08-19T10:35:19;68.37;;;9.00;;
1308;SDS011;647;48.840;9.314;2022-08-19T10:37:47;69.47;;;9.10;;
1308;SDS011;647;48.840;9.314;2022-08-19T10:40:14;70.30;;;9.70;;
1308;SDS011;647;48.840;9.314;2022-08-19T10:42:41;75.30;;;11.30;;
1308;SDS011;647;48.840;9.314;2022-08-19T10:45:11;63.93;;;8.80;;
1308;SDS011;647;48.840;9.314;2022-08-19T10:47:38;67.90;;;8.43;;
1308;SDS011;647;48.840;9.314;2022-08-19T10:50:05;64.90;;;8.50;;
1308;SDS011;647;48.840;9.314;2022-08-19T10:52:50;68.30;;;9.80;;
1308;SDS011;647;48.840;9.314;2022-08-19T10:55:18;67.07;;;10.00;;
1308;SDS011;647;48.840;9.314;2022-08-19T10:58:03;67.43;;;10.30;;
1308;SDS011;647;48.840;9.314;2022-08-19T11:00:32;63.43;;;8.20;;
1308;SDS011;647;48.840;9.314;2022-08-19T11:02:59;67.30;;;9.73;;
1308;SDS011;647;48.840;9.314;2022-08-19T11:05:26;67.20;;;9.40;;
1308;SDS011;647;48.840;9.314;2022-08-19T11:07:53;67.10;;;9.80;;
1308;SDS011;647;48.840;9.314;2022-08-19T11:10:21;69.63;;;10.03;;
1308;SDS011;647;48.840;9.314;2022-08-19T11:12:48;65.80;;;8.53;;
1308;SDS011;647;48.840;9.314;2022-08-19T11:15:18;72.37;;;10.83;;
1308;SDS011;647;48.840;9.314;2022-08-19T11:17:46;71.17;;;12.00;;
1308;SDS011;647;48.840;9.314;2022-08-19T11:20:14;71.70;;;10.60;;
1308;SDS011;647;48.840;9.314;2022-08-19T11:22:41;69.50;;;10.40;;
1308;SDS011;647;48.840;9.314;2022-08-19T11:25:08;73.83;;;11.97;;
1308;SDS011;647;48.840;9.314;2022-08-19T11:27:37;72.27;;;11.20;;
1308;SDS011;647;48.840;9.314;2022-08-19T11:30:07;68.47;;;11.27;;
1308;SDS011;647;48.840;9.314;2022-08-19T11:32:34;68.63;;;11.07;;
1308;SDS011;647;48.840;9.314;2022-08-19T11:35:03;71.10;;;11.60;;
1308;SDS011;647;48.840;9.314;2022-08-19T11:37:30;71.10;;;11.57;;
1308;SDS011;647;48.840;9.314;2022-08-19T11:40:03;67.80;;;10.80;;
1308;SDS011;647;48.840;9.314;2022-08-19T11:42:31;68.23;;;10.37;;
1308;SDS011;647;48.840;9.314;2022-08-19T11:45:15;70.67;;;11.20;;
1308;SDS011;647;48.840;9.314;2022-08-19T11:47:42;68.50;;;10.47;;
1308;SDS011;647;48.840;9.314;2022-08-19T11:50:12;70.63;;;11.37;;
1308;SDS011;647;48.840;9.314;2022-08-19T11:52:40;72.50;;;11.47;;
1308;SDS011;647;48.840;9.314;2022-08-19T11:55:08;65.47;;;9.00;;
1308;SDS011;647;48.840;9.314;2022-08-19T11:57:35;75.20;;;10.37;;
1308;SDS011;647;48.840;9.314;2022-08-19T12:00:03;68.00;;;11.03;;
1308;SDS011;647;48.840;9.314;2022-08-19T12:02:31;68.50;;;9.80;;
1308;SDS011;647;48.840;9.314;2022-08-19T12:04:59;73.00;;;9.70;;
1308;SDS011;647;48.840;9.314;2022-08-19T12:07:29;71.30;;;10.30;;
1308;SDS011;647;48.840;9.314;2022-08-19T12:09:58;65.70;;;10.27;;
1308;SDS011;647;48.840;9.314;2022-08-19T12:12:25;68.50;;;9.93;;
1308;SDS011;647;48.840;9.314;2022-08-19T12:14:52;69.90;;;10.50;;
1308;SDS011;647;48.840;9.314;2022-08-19T12:17:23;68.80;;;11.50;;
1308;SDS011;647;48.840;9.314;2022-08-19T12:19:50;68.57;;;11.07;;
1308;SDS011;647;48.840;9.314;2022-08-19T12:22:17;65.83;;;8.87;;
1308;SDS011;647;48.840;9.314;2022-08-19T12:24:47;66.10;;;9.23;;
1308;SDS011;647;48.840;9.314;2022-08-19T12:27:15;67.37;;;8.77;;
1308;SDS011;647;48.840;9.314;2022-08-19T12:29:42;67.60;;;9.57;;
1308;SDS011;647;48.840;9.314;2022-08-19T12:32:09;69.13;;;9.47;;
1308;SDS011;647;48.840;9.314;2022-08-19T12:34:36;70.77;;;10.80;;
1308;SDS011;647;48.840;9.314;2022-08-19T12:37:04;69.07;;;9.30;;
1308;SDS011;647;48.840;9.314;2022-08-19T12:39:34;67.97;;;11.50;;
1308;SDS011;647;48.840;9.314;2022-08-19T12:42:02;66.00;;;9.67;;
1308;SDS011;647;48.840;9.314;2022-08-19T12:44:29;69.80;;;12.10;;
1308;SDS011;647;48.840;9.314;2022-08-19T12:46:57;66.27;;;7.97;;
1308;SDS011;647;48.840;9.314;2022-08-19T12:49:26;66.57;;;9.43;;
1308;SDS011;647;48.840;9.314;2022-08-19T12:51:53;64.93;;;7.90;;
1308;SDS011;647;48.840;9.314;2022-08-19T12:54:21;66.73;;;9.10;;
1308;SDS011;647;48.840;9.314;2022-08-19T12:56:48;65.50;;;10.20;;
1308;SDS011;647;48.840;9.314;2022-08-19T12:59:16;68.77;;;9.57;;
1308;SDS011;647;48.840;9.314;2022-08-19T13:01:44;68.60;;;9.70;;
1308;SDS011;647;48.840;9.314;2022-08-19T13:04:11;68.47;;;11.00;;
1308;SDS011;647;48.840;9.314;2022-08-19T13:06:38;66.73;;;12.20;;
1308;SDS011;647;48.840;9.314;2022-08-19T13:09:07;66.47;;;9.50;;
1308;SDS011;647;48.840;9.314;2022-08-19T13:11:34;64.83;;;9.17;;
1308;SDS011;647;48.840;9.314;2022-08-19T13:14:02;68.57;;;9.93;;
1308;SDS011;647;48.840;9.314;2022-08-19T13:16:31;66.13;;;8.23;;
1308;SDS011;647;48.840;9.314;2022-08-19T13:18:58;67.40;;;9.97;;
1308;SDS011;647;48.840;9.314;2022-08-19T13:21:27;67.73;;;10.93;;
1308;SDS011;647;48.840;9.314;2022-08-19T13:23:55;65.40;;;8.50;;
1308;SDS011;647;48.840;9.314;2022-08-19T13:26:23;69.47;;;10.13;;
1308;SDS011;647;48.840;9.314;2022-08-19T13:28:50;66.80;;;10.20;;
1308;SDS011;647;48.840;9.314;2022-08-19T13:31:38;66.70;;;9.70;;
1308;SDS011;647;48.840;9.314;2022-08-19T13:34:26;68.53;;;11.03;;
1308;SDS011;647;48.840;9.314;2022-08-19T13:36:53;73.20;;;11.70;;
1308;SDS011;647;48.840;9.314;2022-08-19T13:39:21;67.00;;;10.73;;
1308;SDS011;647;48.840;9.314;2022-08-19T13:41:48;69.60;;;9.90;;
1308;SDS011;647;48.840;9.314;2022-08-19T13:44:16;69.17;;;11.00;;
1308;SDS011;647;48.840;9.314;2022-08-19T13:46:45;68.83;;;10.70;;
1308;SDS011;647;48.840;9.314;2022-08-19T13:49:13;71.33;;;11.80;;
1308;SDS011;647;48.840;9.314;2022-08-19T13:51:41;66.50;;;9.87;;
1308;SDS011;647;48.840;9.314;2022-08-19T13:54:09;70.23;;;11.73;;
1308;SDS011;647;48.840;9.314;2022-08-19T13:56:39;66.80;;;10.40;;
1308;SDS011;647;48.840;9.314;2022-08-19T13:59:06;69.30;;;11.60;;
1308;SDS011;647;48.840;9.314;2022-08-19T14:01:33;70.70;;;12.67;;
1308;SDS011;647;48.840;9.314;2022-08-19T14:04:02;66.07;;;9.37;;
1308;SDS011;647;48.840;9.314;2022-08-19T14:06:30;70.67;;;9.83;;
1308;SDS011;647;48.840;9.314;2022-08-19T14:08:57;66.50;;;9.53;;
1308;SDS011;647;48.840;9.314;2022-08-19T14:11:26;69.07;;;11.30;;
1308;SDS011;647;48.840;9.314;2022-08-19T14:13:54;68.80;;;11.60;;
1308;SDS011;647;48.840;9.314;2022-08-19T14:16:21;69.07;;;11.13;;
1308;SDS011;647;48.840;9.314;2022-08-19T14:18:48;69.47;;;10.80;;
1308;SDS011;647;48.840;9.314;2022-08-19T14:21:22;66.20;;;9.70;;
1308;SDS011;647;48.840;9.314;2022-08-19T14:23:50;68.13;;;10.17;;
1308;SDS011;647;48.840;9.314;2022-08-19T14:26:18;70.63;;;10.80;;
1308;SDS011;647;48.840;9.314;2022-08-19T14:28:45;67.63;;;10.93;;
1308;SDS011;647;48.840;9.314;2022-08-19T14:31:13;67.20;;;9.57;;
1308;SDS011;647;48.840;9.314;2022-08-19T14:33:43;70.70;;;11.97;;
1308;SDS011;647;48.840;9.314;2022-08-19T14:36:10;67.10;;;10.13;;
1308;SDS011;647;48.840;9.314;2022-08-19T14:38:39;67.53;;;10.40;;
1308;SDS011;647;48.840;9.314;2022-08-19T14:41:07;68.83;;;10.20;;
1308;SDS011;647;48.840;9.314;2022-08-19T14:43:34;70.30;;;11.80;;
1308;SDS011;647;48.840;9.314;2022-08-19T14:46:03;68.87;;;11.13;;
1308;SDS011;647;48.840;9.314;2022-08-19T14:48:30;67.10;;;9.40;;
1308;SDS011;647;48.840;9.314;2022-08-19T14:50:57;70.77;;;11.37;;
1308;SDS011;647;48.840;9.314;2022-08-19T14:53:24;68.20;;;9.90;;
1308;SDS011;647;48.840;9.314;2022-08-19T14:55:53;68.67;;;10.83;;
1308;SDS011;647;48.840;9.314;2022-08-19T14:58:20;76.57;;;11.17;;
1308;SDS011;647;48.840;9.314;2022-08-19T15:00:47;69.00;;;10.70;;
1308;SDS011;647;48.840;9.314;2022-08-19T15:03:14;70.37;;;10.33;;
1308;SDS011;647;48.840;9.314;2022-08-19T15:05:42;68.87;;;10.57;;
1308;SDS011;647;48.840;9.314;2022-08-19T15:08:09;72.57;;;12.83;;
1308;SDS011;647;48.840;9.314;2022-08-19T15:10:37;71.37;;;9.60;;
1308;SDS011;647;48.840;9.314;2022-08-19T15:13:06;73.00;;;11.73;;
1308;SDS011;647;48.840;9.314;2022-08-19T15:15:34;73.03;;;9.97;;
1308;SDS011;647;48.840;9.314;2022-08-19T15:18:02;69.50;;;11.67;;
1308;SDS011;647;48.840;9.314;2022-08-19T15:20:29;70.70;;;11.90;;